CheckWX is a tool to help pilots better visualize weather data.  It is not intended as a substitute for an official pre-flight weather briefing.

21:46:22 UTC

D73 METAR
Monroe-Walton County Airport
Monroe, Georgia, USA
Current

31 mins ago

KD73 232115Z AUTO 07007KT 1 1/2SM -DZ BR OVC003 08/08 A3011 RMK AO2 T00850083
Observed
Feb-23 @ 21:15 UTC
Wind
  • 070° at 7 KTS
Visibility
1 1/2 SM
Flight Rules
LIFR
Conditions
Light Drizzle, Mist
Cloud Levels
  • Overcast at 300' AGL
Temperature
C / 48°F
Dewpoint
C / 46°F
Humidity
94%
Altimeter
30.11" Hg
Pressure
1019.62 hPa
Previous

51 mins ago

KD73 232055Z AUTO 07008KT 1 1/2SM -DZ BR OVC003 08/08 A3013 RMK AO2 T00840082
Observed
Feb-23 @ 20:55 UTC
Wind
  • 070° at 8 KTS
Visibility
1 1/2 SM
Flight Rules
LIFR
Conditions
Light Drizzle, Mist
Cloud Levels
  • Overcast at 300' AGL
Temperature
C / 46°F
Dewpoint
C / 46°F
Humidity
100%
Altimeter
30.13" Hg
Pressure
1020.32 hPa
Previous

1 hour ago

KD73 232035Z AUTO 06007KT 1 1/2SM BR OVC003 09/08 A3013 RMK AO2 T00850083
Observed
Feb-23 @ 20:35 UTC
Wind
  • 060° at 7 KTS
Visibility
1 1/2 SM
Flight Rules
LIFR
Conditions
Mist
Cloud Levels
  • Overcast at 300' AGL
Temperature
C / 48°F
Dewpoint
C / 46°F
Humidity
94%
Altimeter
30.13" Hg
Pressure
1020.32 hPa